WXM80 ListenWXM80 Stop

You find our weather info also at:

UK Metoffice

WeatherCloud

Weather Underground

Northeastern Weather Network

AWEKAS

Citizen Weather Observer Program (CWOP)

HAMweather, WeatherForYou, PWS Weather


Weather Underground History page Text

Daily Summary for August 1, 2016 Units:  English    Metric   Both
« Previous Day
Next Day »
Daily Weekly Monthly Yearly Custom
  High: Low: Average:
Temperature: 80.2 °F 68.9 °F 73.3 °F
Dew Point: 70.7 °F 64.8 °F 68.1 °F
Humidity: 96 % 71 % 84 %
Wind Speed: 6.0 mph 0.0 mph 1.9 mph
Wind Gust: 10.4 mph - -
Wind:- - East
Pressure: 30.06 in 29.98 in -
Precipitation: 0.01 in    
Historical Graphs
 
 
Tabular Data for August 1, 2016
Time Temperature Dew Point Pressure Wind Wind Speed Wind Gust Humidity Rainfall Rate (Hourly)
00:02 71.5 °F 69.7 °F 30.01 in Calm     94 % 0.01 in
00:07 71.5 °F 70.0 °F 30.01 in East 1.2 mph 2.3 mph 95 % 0.01 in
00:12 71.4 °F 69.9 °F 30.00 in East 1.4 mph 3.5 mph 95 % 0.00 in
00:17 71.3 °F 69.8 °F 30.01 in East 1.5 mph 3.5 mph 95 % 0.00 in
00:22 71.3 °F 69.8 °F 30.00 in ENE 1.4 mph 2.3 mph 95 % 0.00 in
00:27 71.3 °F 69.8 °F 30.01 in ENE 2.3 mph 3.5 mph 95 % 0.00 in
00:32 71.3 °F 70.1 °F 30.01 in East 1.6 mph 2.3 mph 96 % 0.00 in
00:37 71.3 °F 70.1 °F 30.00 in ENE 3.1 mph 8.1 mph 96 % 0.00 in
00:43 71.3 °F 70.1 °F 30.00 in ENE 2.6 mph 4.6 mph 96 % 0.00 in
00:48 71.3 °F 70.1 °F 30.01 in ENE 3.2 mph 6.9 mph 96 % 0.02 in
00:53 71.2 °F 70.0 °F 30.00 in ENE 3.0 mph 8.1 mph 96 % 0.01 in
00:58 71.0 °F 69.8 °F 30.01 in NE 2.7 mph 9.2 mph 96 % 0.01 in
01:03 70.9 °F 69.7 °F 30.01 in ENE 2.0 mph 3.5 mph 96 % 0.01 in
01:08 70.9 °F 69.7 °F 30.01 in East 2.6 mph 3.5 mph 96 % 0.00 in
01:13 70.7 °F 69.2 °F 30.01 in East 3.2 mph 3.5 mph 95 % 0.00 in
01:18 70.6 °F 69.4 °F 30.01 in ENE 2.1 mph 3.5 mph 96 % 0.00 in
01:23 70.5 °F 69.3 °F 30.01 in ENE 2.1 mph 3.5 mph 96 % 0.00 in
01:28 70.4 °F 69.2 °F 30.01 in ENE 1.4 mph 3.5 mph 96 % 0.00 in
01:34 70.4 °F 69.2 °F 30.00 in ENE 2.2 mph 3.5 mph 96 % 0.00 in
01:39 70.4 °F 69.2 °F 30.00 in ENE 2.0 mph 3.5 mph 96 % 0.00 in
01:44 70.4 °F 69.2 °F 30.00 in ENE 2.6 mph 3.5 mph 96 % 0.00 in
01:49 70.2 °F 69.0 °F 30.00 in East 2.0 mph 3.5 mph 96 % 0.00 in
01:54 70.2 °F 69.0 °F 30.00 in East 2.0 mph 3.5 mph 96 % 0.00 in
01:59 70.2 °F 69.0 °F 29.99 in East 2.8 mph 4.6 mph 96 % 0.00 in
02:04 70.1 °F 68.9 °F 29.99 in East 2.9 mph 5.8 mph 96 % 0.00 in
02:09 70.1 °F 68.9 °F 29.99 in East 2.8 mph 5.0 mph 96 % 0.00 in
02:14 70.1 °F 68.9 °F 29.99 in East 2.5 mph 3.5 mph 96 % 0.00 in
02:19 70.0 °F 68.8 °F 29.99 in East 2.8 mph 5.0 mph 96 % 0.00 in
02:25 70.0 °F 68.8 °F 29.99 in East 2.8 mph 4.6 mph 96 % 0.00 in
02:30 70.0 °F 68.8 °F 29.99 in East 2.6 mph 4.6 mph 96 % 0.00 in
02:35 70.0 °F 68.8 °F 29.99 in East 2.8 mph 3.5 mph 96 % 0.00 in
02:40 70.0 °F 68.8 °F 29.99 in ENE 2.9 mph 4.6 mph 96 % 0.00 in
02:45 70.0 °F 68.8 °F 29.99 in ENE 2.4 mph 3.5 mph 96 % 0.00 in
02:50 70.0 °F 68.8 °F 29.99 in ENE 4.5 mph 10.4 mph 96 % 0.00 in
02:55 70.0 °F 68.5 °F 29.99 in ENE 2.3 mph 3.5 mph 95 % 0.00 in
03:00 70.1 °F 68.9 °F 29.99 in East 3.4 mph 3.5 mph 96 % 0.00 in
03:05 70.1 °F 68.9 °F 29.99 in ENE 1.8 mph 3.5 mph 96 % 0.00 in
03:10 70.2 °F 69.0 °F 29.99 in East 2.3 mph 4.6 mph 96 % 0.00 in
03:16 70.2 °F 69.0 °F 29.98 in ENE 2.7 mph 3.5 mph 96 % 0.00 in
03:21 70.2 °F 68.7 °F 29.98 in East 3.0 mph 6.0 mph 95 % 0.00 in
03:26 70.0 °F 68.5 °F 29.98 in East 5.0 mph 7.0 mph 95 % 0.00 in
03:31 69.9 °F 68.4 °F 29.98 in East 2.5 mph 4.6 mph 95 % 0.00 in
03:36 69.9 °F 68.4 °F 29.99 in East 3.0 mph 6.0 mph 95 % 0.00 in
03:41 69.8 °F 68.3 °F 29.99 in East 3.0 mph 7.0 mph 95 % 0.00 in
03:46 69.7 °F 68.2 °F 30.00 in East 5.0 mph 9.0 mph 95 % 0.00 in
03:51 69.6 °F 68.1 °F 29.99 in East 5.0 mph 7.0 mph 95 % 0.00 in
03:56 69.5 °F 68.0 °F 29.99 in East 3.0 mph 6.0 mph 95 % 0.00 in
04:01 69.5 °F 68.0 °F 30.00 in East 4.2 mph 6.9 mph 95 % 0.00 in
04:06 69.4 °F 67.9 °F 30.00 in East 5.0 mph 8.0 mph 95 % 0.00 in
04:11 69.4 °F 67.9 °F 30.00 in East 3.0 mph 6.0 mph 95 % 0.00 in
04:16 69.3 °F 67.8 °F 30.00 in East 4.8 mph 5.8 mph 95 % 0.00 in
04:21 69.3 °F 67.8 °F 30.00 in East 3.4 mph 4.6 mph 95 % 0.00 in
04:26 69.2 °F 67.7 °F 30.01 in ENE 2.9 mph 4.0 mph 95 % 0.00 in
04:31 69.2 °F 67.4 °F 30.01 in East 4.1 mph 5.8 mph 94 % 0.00 in
04:36 69.1 °F 67.3 °F 30.01 in East 3.1 mph 4.6 mph 94 % 0.00 in
04:41 69.2 °F 67.4 °F 30.01 in East 3.2 mph 5.0 mph 94 % 0.00 in
04:46 69.2 °F 67.4 °F 30.01 in East 3.4 mph 4.6 mph 94 % 0.00 in
04:51 69.2 °F 67.4 °F 30.01 in ENE 3.2 mph 4.0 mph 94 % 0.00 in
04:56 69.2 °F 67.4 °F 30.01 in ENE 2.5 mph 3.5 mph 94 % 0.00 in
05:01 69.3 °F 67.5 °F 30.01 in ENE 2.9 mph 6.9 mph 94 % 0.00 in
05:07 69.3 °F 67.5 °F 30.01 in ENE 2.8 mph 5.8 mph 94 % 0.00 in
05:12 69.2 °F 67.4 °F 30.01 in ENE 5.3 mph 6.9 mph 94 % 0.00 in
05:17 69.2 °F 67.4 °F 30.01 in ENE 3.8 mph 8.1 mph 94 % 0.00 in
05:22 69.3 °F 67.5 °F 30.01 in East 3.7 mph 8.0 mph 94 % 0.00 in
05:27 69.2 °F 67.4 °F 30.01 in ENE 3.2 mph 4.6 mph 94 % 0.00 in
05:32 69.3 °F 67.2 °F 30.02 in ENE 6.0 mph 9.2 mph 93 % 0.00 in
05:37 69.3 °F 67.2 °F 30.02 in ENE 3.8 mph 4.6 mph 93 % 0.00 in
05:42 69.2 °F 67.1 °F 30.01 in ENE 4.2 mph 6.9 mph 93 % 0.00 in
05:47 69.2 °F 67.1 °F 30.01 in East 4.0 mph 5.8 mph 93 % 0.00 in
05:52 69.2 °F 67.1 °F 30.01 in East 4.4 mph 5.8 mph 93 % 0.00 in
05:58 69.2 °F 66.8 °F 30.02 in ENE 3.3 mph 5.0 mph 92 % 0.00 in
06:03 69.2 °F 67.1 °F 30.02 in East 3.0 mph 5.0 mph 93 % 0.00 in
06:08 69.1 °F 66.7 °F 30.02 in East 2.9 mph 3.5 mph 92 % 0.00 in
06:13 69.1 °F 66.7 °F 30.02 in East 3.7 mph 5.8 mph 92 % 0.00 in
06:18 69.0 °F 66.6 °F 30.02 in East 2.7 mph 4.6 mph 92 % 0.00 in
06:23 69.0 °F 66.6 °F 30.02 in East 2.9 mph 4.6 mph 92 % 0.00 in
06:28 69.0 °F 66.6 °F 30.02 in East 2.9 mph 4.6 mph 92 % 0.00 in
06:33 69.0 °F 66.6 °F 30.02 in ESE 1.9 mph 3.5 mph 92 % 0.00 in
06:38 69.0 °F 66.6 °F 30.02 in East 1.2 mph 2.3 mph 92 % 0.00 in
06:43 69.0 °F 66.6 °F 30.02 in East 0.4 mph 2.3 mph 92 % 0.00 in
06:49 69.0 °F 66.6 °F 30.03 in ESE 0.5 mph 3.5 mph 92 % 0.00 in
06:54 68.9 °F 66.5 °F 30.03 in East 0.9 mph 2.3 mph 92 % 0.00 in
06:59 68.9 °F 66.5 °F 30.03 in East 1.0 mph 2.3 mph 92 % 0.00 in
07:04 68.9 °F 66.5 °F 30.03 in ESE 1.4 mph 2.3 mph 92 % 0.00 in
07:09 68.9 °F 66.5 °F 30.03 in ESE 0.6 mph 2.3 mph 92 % 0.00 in
07:14 69.0 °F 66.6 °F 30.03 in ESE 0.3 mph 2.0 mph 92 % 0.00 in
07:19 69.0 °F 66.6 °F 30.04 in ESE 0.2 mph 2.3 mph 92 % 0.00 in
07:24 69.1 °F 66.7 °F 30.04 in ESE 1.2 mph 2.3 mph 92 % 0.00 in
07:29 69.2 °F 66.8 °F 30.04 in ESE 1.0 mph 2.3 mph 92 % 0.00 in
07:34 69.2 °F 66.8 °F 30.04 in ESE 0.8 mph 2.3 mph 92 % 0.00 in
07:40 69.3 °F 66.9 °F 30.04 in ESE 1.2 mph 3.5 mph 92 % 0.00 in
07:45 69.4 °F 66.7 °F 30.04 in ESE 1.1 mph 2.3 mph 91 % 0.00 in
07:50 69.5 °F 66.8 °F 30.04 in ENE 1.1 mph 3.5 mph 91 % 0.00 in
07:55 69.5 °F 66.4 °F 30.04 in ENE 1.4 mph 2.3 mph 90 % 0.00 in
08:00 69.7 °F 66.6 °F 30.04 in ENE 0.7 mph 2.3 mph 90 % 0.00 in
08:05 70.0 °F 67.3 °F 30.04 in ENE 0.7 mph 2.3 mph 91 % 0.00 in
08:10 70.3 °F 67.5 °F 30.04 in ENE 1.1 mph 2.3 mph 91 % 0.00 in
08:15 70.6 °F 67.5 °F 30.04 in East 2.3 mph 3.5 mph 90 % 0.00 in
08:20 70.8 °F 67.4 °F 30.04 in ENE 1.4 mph 3.5 mph 89 % 0.00 in
08:25 71.1 °F 67.4 °F 30.05 in ENE 1.7 mph 2.3 mph 88 % 0.00 in
08:31 71.3 °F 67.2 °F 30.04 in ENE 2.0 mph 3.0 mph 87 % 0.00 in
08:36 71.5 °F 67.4 °F 30.04 in ENE 1.0 mph 3.0 mph 87 % 0.00 in
08:40 71.6 °F 67.5 °F 30.04 in ENE 2.0 mph 5.0 mph 87 % 0.00 in
08:46 71.7 °F 67.6 °F 30.04 in ENE 2.0 mph 4.0 mph 87 % 0.00 in
08:51 71.7 °F 67.6 °F 30.04 in East 2.0 mph 3.0 mph 87 % 0.00 in
08:56 71.9 °F 67.8 °F 30.04 in East 1.0 mph 3.0 mph 87 % 0.00 in
09:01 72.0 °F 67.2 °F 30.04 in ENE 1.3 mph 2.3 mph 85 % 0.00 in
09:06 71.9 °F 67.1 °F 30.04 in NE 2.7 mph 5.8 mph 85 % 0.00 in
09:11 71.8 °F 67.4 °F 30.04 in East 1.9 mph 3.5 mph 86 % 0.00 in
09:16 71.8 °F 67.0 °F 30.04 in NE 2.7 mph 3.5 mph 85 % 0.00 in
09:21 71.8 °F 67.0 °F 30.04 in ENE 2.8 mph 3.5 mph 85 % 0.00 in
09:26 71.8 °F 67.0 °F 30.04 in ENE 1.5 mph 3.5 mph 85 % 0.00 in
09:31 71.7 °F 66.9 °F 30.04 in NE 2.3 mph 3.5 mph 85 % 0.00 in
09:36 71.7 °F 67.3 °F 30.04 in ENE 1.4 mph 3.5 mph 86 % 0.00 in
09:41 71.7 °F 67.3 °F 30.04 in ENE 2.0 mph 3.5 mph 86 % 0.00 in
09:46 71.7 °F 67.3 °F 30.04 in ENE 3.0 mph 3.5 mph 86 % 0.00 in
09:52 71.7 °F 67.3 °F 30.04 in ENE 1.9 mph 3.5 mph 86 % 0.00 in
09:57 71.7 °F 67.3 °F 30.04 in ENE 2.2 mph 3.5 mph 86 % 0.00 in
10:02 71.9 °F 67.8 °F 30.04 in ENE 2.1 mph 3.5 mph 87 % 0.00 in
10:07 72.2 °F 67.8 °F 30.04 in ENE 2.2 mph 3.5 mph 86 % 0.00 in
10:12 72.3 °F 67.5 °F 30.04 in ENE 2.0 mph 3.5 mph 85 % 0.00 in
10:17 72.4 °F 67.6 °F 30.04 in East 2.3 mph 3.5 mph 85 % 0.00 in
10:22 72.5 °F 67.4 °F 30.04 in ENE 2.1 mph 3.5 mph 84 % 0.00 in
10:27 72.7 °F 67.6 °F 30.04 in ENE 2.5 mph 4.6 mph 84 % 0.00 in
10:32 72.8 °F 67.7 °F 30.05 in ENE 2.5 mph 3.5 mph 84 % 0.00 in
10:37 73.0 °F 67.5 °F 30.05 in ENE 1.9 mph 3.5 mph 83 % 0.00 in
10:42 73.3 °F 67.8 °F 30.05 in East 2.8 mph 4.6 mph 83 % 0.00 in
10:49 73.5 °F 67.7 °F 30.05 in NE 2.6 mph 3.5 mph 82 % 0.00 in
10:54 73.8 °F 68.0 °F 30.04 in ENE 2.8 mph 4.6 mph 82 % 0.00 in
10:59 73.9 °F 68.1 °F 30.05 in ENE 2.3 mph 3.5 mph 82 % 0.00 in
11:04 74.1 °F 68.3 °F 30.04 in ENE 1.7 mph 2.3 mph 82 % 0.00 in
11:09 74.3 °F 68.1 °F 30.04 in NE 1.9 mph 3.5 mph 81 % 0.00 in
11:20 74.7 °F 68.8 °F 30.04 in ENE 1.4 mph 2.3 mph 82 % 0.00 in
11:25 75.0 °F 68.8 °F 30.05 in East 1.3 mph 2.3 mph 81 % 0.00 in
11:30 75.2 °F 68.2 °F 30.04 in NE 2.4 mph 3.5 mph 79 % 0.00 in
11:35 75.3 °F 68.7 °F 30.04 in ENE 1.8 mph 3.5 mph 80 % 0.00 in
11:40 75.3 °F 68.3 °F 30.05 in ENE 2.0 mph 4.0 mph 79 % 0.00 in
11:45 75.4 °F 68.1 °F 30.05 in ENE 2.4 mph 4.6 mph 78 % 0.00 in
11:50 75.3 °F 68.0 °F 30.04 in East 1.6 mph 3.5 mph 78 % 0.00 in
11:55 75.4 °F 68.4 °F 30.04 in NE 2.9 mph 4.0 mph 79 % 0.00 in
12:00 75.5 °F 68.5 °F 30.05 in ENE 3.4 mph 4.6 mph 79 % 0.00 in
12:05 75.6 °F 68.3 °F 30.04 in ENE 2.0 mph 7.0 mph 78 % 0.00 in
12:11 75.6 °F 68.6 °F 30.04 in ENE 1.0 mph 8.0 mph 79 % 0.00 in
12:15 75.8 °F 69.1 °F 30.05 in NE 3.0 mph 7.0 mph 80 % 0.00 in
12:21 75.8 °F 68.5 °F 30.05 in ENE 2.0 mph 5.0 mph 78 % 0.00 in
12:25 76.0 °F 68.6 °F 30.04 in ENE 3.0 mph 6.0 mph 78 % 0.00 in
12:30 76.0 °F 68.6 °F 30.04 in ENE 2.0 mph 4.0 mph 78 % 0.00 in
12:36 76.1 °F 68.8 °F 30.05 in ENE 3.0 mph 6.0 mph 78 % 0.00 in
12:41 76.4 °F 68.7 °F 30.05 in ENE 3.0 mph 8.0 mph 77 % 0.00 in
12:46 76.8 °F 69.8 °F 30.05 in ENE 1.0 mph 7.0 mph 79 % 0.00 in
12:51 77.1 °F 69.7 °F 30.05 in ENE 3.0 mph 8.0 mph 78 % 0.00 in
12:56 77.4 °F 69.6 °F 30.05 in ENE 4.2 mph 5.0 mph 77 % 0.00 in
13:01 77.8 °F 70.4 °F 30.05 in ENE 2.8 mph 6.9 mph 78 % 0.00 in
13:06 78.1 °F 69.9 °F 30.05 in ENE 3.8 mph 5.0 mph 76 % 0.00 in
13:11 78.1 °F 69.9 °F 30.05 in ENE 3.6 mph 7.0 mph 76 % 0.00 in
13:16 78.3 °F 70.1 °F 30.05 in ENE 2.9 mph 4.6 mph 76 % 0.00 in
13:21 78.5 °F 69.5 °F 30.05 in NE 4.2 mph 6.9 mph 74 % 0.00 in
13:26 78.7 °F 69.3 °F 30.04 in ENE 3.1 mph 3.5 mph 73 % 0.00 in
13:31 78.9 °F 70.7 °F 30.05 in East 1.7 mph 6.0 mph 76 % 0.00 in
13:36 79.2 °F 70.6 °F 30.04 in ENE 1.9 mph 3.5 mph 75 % 0.00 in
13:41 79.3 °F 69.9 °F 30.05 in NE 1.9 mph 4.6 mph 73 % 0.00 in
13:47 79.4 °F 70.4 °F 30.04 in ENE 2.8 mph 4.6 mph 74 % 0.00 in
13:52 79.4 °F 69.2 °F 30.04 in ENE 3.9 mph 6.9 mph 71 % 0.00 in
13:57 79.0 °F 69.2 °F 30.04 in NNE 3.3 mph 6.9 mph 72 % 0.00 in
14:08 79.2 °F 70.6 °F 30.03 in NE 1.8 mph 8.1 mph 75 % 0.00 in
14:13 79.3 °F 69.9 °F 30.03 in ENE 2.8 mph 6.9 mph 73 % 0.00 in
14:18 79.5 °F 70.5 °F 30.03 in NE 1.8 mph 3.5 mph 74 % 0.00 in
14:24 79.7 °F 70.7 °F 30.03 in ENE 1.1 mph 6.9 mph 74 % 0.00 in
14:29 79.9 °F 70.1 °F 30.03 in ENE 1.1 mph 3.5 mph 72 % 0.00 in
14:34 79.9 °F 70.1 °F 30.02 in ENE 2.2 mph 4.6 mph 72 % 0.00 in
14:39 80.2 °F 69.9 °F 30.02 in ENE 0.7 mph 2.3 mph 71 % 0.00 in
14:44 80.2 °F 69.9 °F 30.02 in NE 3.4 mph 4.6 mph 71 % 0.00 in
14:49 80.0 °F 70.2 °F 30.02 in East 3.0 mph 6.9 mph 72 % 0.00 in
14:54 79.9 °F 70.1 °F 30.02 in East 3.9 mph 6.9 mph 72 % 0.00 in
14:59 79.7 °F 69.9 °F 30.02 in ENE 2.6 mph 4.6 mph 72 % 0.00 in
15:04 79.6 °F 69.8 °F 30.02 in ENE 1.5 mph 6.9 mph 72 % 0.00 in
15:05 79.6 °F 70.2 °F 30.02 in ENE 3.0 mph 7.0 mph 73 % 0.00 in
15:12 79.7 °F 69.9 °F 30.01 in East 3.7 mph 6.0 mph 72 % 0.00 in
15:17 79.7 °F 69.9 °F 30.02 in ENE 2.0 mph 3.5 mph 72 % 0.00 in
15:22 79.9 °F 70.1 °F 30.02 in ENE 4.1 mph 5.8 mph 72 % 0.00 in
15:28 79.6 °F 69.8 °F 30.02 in ENE 1.0 mph 3.5 mph 72 % 0.00 in
15:33 79.4 °F 69.2 °F 30.02 in NNE 1.0 mph 2.3 mph 71 % 0.00 in
15:43 78.7 °F 69.3 °F 30.02 in ENE 2.4 mph 3.5 mph 73 % 0.00 in
15:48 78.4 °F 69.0 °F 30.02 in NE 2.9 mph 4.6 mph 73 % 0.00 in
15:53 78.4 °F 69.0 °F 30.02 in ENE 1.1 mph 4.6 mph 73 % 0.00 in
15:58 78.3 °F 69.7 °F 30.02 in ENE 1.1 mph 6.9 mph 75 % 0.00 in
16:03 78.5 °F 69.9 °F 30.02 in ENE 1.0 mph 3.5 mph 75 % 0.00 in
16:08 78.8 °F 69.8 °F 30.01 in NE 1.6 mph 2.3 mph 74 % 0.00 in
16:13 79.1 °F 68.9 °F 30.01 in ENE 1.6 mph 2.3 mph 71 % 0.00 in
16:19 79.2 °F 69.0 °F 30.01 in ENE 1.6 mph 3.5 mph 71 % 0.00 in
16:24 79.3 °F 69.1 °F 30.00 in ENE 1.9 mph 3.5 mph 71 % 0.00 in
16:29 79.4 °F 70.0 °F 30.01 in NE 0.9 mph 2.3 mph 73 % 0.00 in
16:34 79.4 °F 70.0 °F 30.00 in NE 0.5 mph 2.3 mph 73 % 0.00 in
16:39 79.6 °F 70.6 °F 30.00 in NE 0.7 mph 1.2 mph 74 % 0.00 in
16:44 79.7 °F 69.9 °F 30.00 in ENE 1.0 mph 3.5 mph 72 % 0.00 in
16:49 79.5 °F 69.7 °F 30.00 in ENE 0.9 mph 3.5 mph 72 % 0.00 in
16:54 79.3 °F 69.1 °F 30.00 in ENE 3.5 mph 4.6 mph 71 % 0.00 in
16:59 78.9 °F 69.1 °F 30.00 in ENE 1.4 mph 3.5 mph 72 % 0.00 in
17:04 78.6 °F 69.6 °F 30.00 in NE 2.7 mph 3.5 mph 74 % 0.00 in
17:10 78.3 °F 69.3 °F 29.99 in East 2.7 mph 4.6 mph 74 % 0.00 in
17:15 78.1 °F 69.5 °F 30.00 in ENE 1.1 mph 3.5 mph 75 % 0.00 in
17:20 77.9 °F 69.7 °F 30.00 in NE 2.5 mph 4.6 mph 76 % 0.00 in
17:25 77.6 °F 69.0 °F 30.00 in ENE 2.9 mph 5.8 mph 75 % 0.00 in
17:30 77.4 °F 69.6 °F 29.99 in ENE 0.3 mph 1.2 mph 77 % 0.00 in
17:35 77.3 °F 69.9 °F 30.00 in ENE 0.4 mph 2.0 mph 78 % 0.00 in
17:40 77.1 °F 69.7 °F 30.00 in NE 0.8 mph 3.5 mph 78 % 0.00 in
17:45 77.0 °F 69.6 °F 30.00 in NE 0.9 mph 2.3 mph 78 % 0.00 in
17:50 76.9 °F 69.5 °F 30.00 in NE 0.5 mph 2.3 mph 78 % 0.00 in
17:55 76.9 °F 69.5 °F 30.00 in NE 2.2 mph 4.0 mph 78 % 0.00 in
18:01 76.7 °F 69.3 °F 30.00 in ENE 0.2 mph 5.8 mph 78 % 0.00 in
18:06 76.5 °F 69.5 °F 30.00 in ENE 1.0 mph 6.0 mph 79 % 0.00 in
18:11 76.4 °F 69.8 °F 30.00 in Calm   2.0 mph 80 % 0.00 in
18:16 76.2 °F 69.6 °F 30.00 in ENE 1.0 mph 5.0 mph 80 % 0.00 in
18:21 76.0 °F 69.8 °F 30.00 in East 1.0 mph 2.0 mph 81 % 0.00 in
18:26 75.9 °F 69.6 °F 30.00 in East 1.0 mph 2.0 mph 81 % 0.00 in
18:31 75.8 °F 69.6 °F 30.00 in East 1.0 mph 2.0 mph 81 % 0.00 in
18:36 75.7 °F 69.5 °F 30.00 in Calm   2.0 mph 81 % 0.00 in
18:41 75.6 °F 69.0 °F 30.01 in East 1.0 mph 2.0 mph 80 % 0.00 in
18:46 75.4 °F 69.2 °F 30.01 in East 1.0 mph 2.0 mph 81 % 0.00 in
18:51 75.3 °F 69.4 °F 30.01 in Calm   1.0 mph 82 % 0.00 in
18:56 75.2 °F 69.3 °F 30.01 in East 1.0 mph 3.0 mph 82 % 0.00 in
19:01 75.1 °F 69.6 °F 30.01 in East 0.3 mph 1.2 mph 83 % 0.00 in
19:06 74.9 °F 69.4 °F 30.01 in East 0.9 mph 2.3 mph 83 % 0.00 in
19:11 74.8 °F 68.9 °F 30.01 in East 0.8 mph 2.3 mph 82 % 0.00 in
19:16 74.7 °F 68.8 °F 30.01 in East 1.4 mph 2.3 mph 82 % 0.00 in
19:21 74.5 °F 68.6 °F 30.01 in ESE 0.6 mph 2.3 mph 82 % 0.00 in
19:26 74.5 °F 68.6 °F 30.01 in Calm   1.2 mph 82 % 0.00 in
19:31 74.5 °F 68.6 °F 30.01 in SE 0.1 mph 1.0 mph 82 % 0.00 in
19:36 74.5 °F 68.6 °F 30.01 in SE 0.1 mph 2.0 mph 82 % 0.00 in
19:41 74.4 °F 67.8 °F 30.02 in Calm   1.2 mph 80 % 0.00 in
19:46 74.4 °F 68.2 °F 30.02 in SE 0.5 mph 3.5 mph 81 % 0.00 in
19:52 74.3 °F 67.0 °F 30.02 in SE 1.8 mph 2.3 mph 78 % 0.00 in
19:57 74.2 °F 66.5 °F 30.02 in SE 0.1 mph 1.2 mph 77 % 0.00 in
20:02 74.2 °F 66.5 °F 30.02 in Calm   1.2 mph 77 % 0.00 in
20:07 74.1 °F 66.4 °F 30.02 in SE 0.6 mph 2.3 mph 77 % 0.00 in
20:12 74.1 °F 66.0 °F 30.02 in SE 0.3 mph 1.2 mph 76 % 0.00 in
20:22 74.0 °F 66.3 °F 30.03 in SE 0.3 mph 1.2 mph 77 % 0.00 in
20:27 73.8 °F 66.1 °F 30.03 in SE 0.1 mph 1.0 mph 77 % 0.00 in
20:32 73.7 °F 65.7 °F 30.03 in SE 0.6 mph 1.2 mph 76 % 0.00 in
20:37 73.7 °F 65.7 °F 30.03 in SE 0.9 mph 2.3 mph 76 % 0.00 in
20:43 73.7 °F 65.7 °F 30.04 in SE 0.4 mph 4.0 mph 76 % 0.00 in
20:48 73.6 °F 65.6 °F 30.04 in SE 0.1 mph 2.3 mph 76 % 0.00 in
20:53 73.5 °F 65.5 °F 30.04 in SE 0.6 mph 3.5 mph 76 % 0.00 in
20:58 73.4 °F 65.7 °F 30.04 in Calm   1.2 mph 77 % 0.00 in
21:03 73.3 °F 65.7 °F 30.04 in Calm     77 % 0.00 in
21:08 73.1 °F 65.5 °F 30.04 in Calm     77 % 0.00 in
21:13 72.9 °F 65.6 °F 30.04 in SE 0.3 mph 1.2 mph 78 % 0.00 in
21:18 72.8 °F 65.5 °F 30.04 in Calm   1.2 mph 78 % 0.00 in
21:23 72.7 °F 65.4 °F 30.05 in SE 0.3 mph 3.5 mph 78 % 0.00 in
21:28 72.7 °F 65.4 °F 30.05 in Calm     78 % 0.00 in
21:33 72.6 °F 65.0 °F 30.06 in Calm     77 % 0.00 in
21:39 72.6 °F 65.0 °F 30.05 in SSE 0.8 mph 2.3 mph 77 % 0.00 in
21:44 72.6 °F 65.0 °F 30.05 in SSE 1.0 mph 2.0 mph 77 % 0.00 in
21:49 72.5 °F 65.2 °F 30.05 in SSE 0.2 mph 1.2 mph 78 % 0.00 in
21:54 72.4 °F 64.8 °F 30.05 in SSE 1.0 mph 3.5 mph 77 % 0.00 in
21:59 72.3 °F 65.1 °F 30.05 in Calm     78 % 0.00 in
22:04 72.2 °F 65.0 °F 30.05 in SSE 0.2 mph 1.2 mph 78 % 0.00 in
22:09 72.1 °F 64.9 °F 30.05 in SSE 0.2 mph 1.2 mph 78 % 0.00 in
22:14 72.0 °F 65.1 °F 30.05 in SSE 0.1 mph 1.2 mph 79 % 0.00 in
22:19 71.9 °F 65.4 °F 30.05 in Calm     80 % 0.00 in
22:24 71.9 °F 65.4 °F 30.05 in Calm   1.2 mph 80 % 0.00 in
22:30 71.8 °F 65.3 °F 30.05 in SSE 0.2 mph 1.2 mph 80 % 0.00 in
22:35 71.8 °F 65.3 °F 30.05 in SSE 0.7 mph 3.0 mph 80 % 0.00 in
22:40 71.8 °F 65.7 °F 30.05 in SSE 0.3 mph 1.2 mph 81 % 0.00 in
22:45 71.8 °F 65.7 °F 30.05 in Calm   1.2 mph 81 % 0.00 in
22:50 71.7 °F 65.9 °F 30.04 in SSE 0.3 mph 1.2 mph 82 % 0.00 in
22:55 71.7 °F 66.3 °F 30.04 in ESE 0.4 mph 1.2 mph 83 % 0.00 in
23:00 71.7 °F 66.6 °F 30.04 in ESE 0.7 mph 2.3 mph 84 % 0.00 in
23:05 71.7 °F 66.6 °F 30.04 in ESE 0.5 mph 2.3 mph 84 % 0.00 in
23:10 71.7 °F 66.6 °F 30.04 in ESE 0.8 mph 2.0 mph 84 % 0.00 in
23:15 71.7 °F 66.9 °F 30.03 in ESE 0.7 mph 2.3 mph 85 % 0.00 in
23:21 71.7 °F 66.9 °F 30.03 in ESE 1.0 mph 3.0 mph 85 % 0.00 in
23:26 71.6 °F 66.8 °F 30.03 in East 1.0 mph 2.0 mph 85 % 0.00 in
23:31 71.6 °F 66.8 °F 30.03 in Calm   2.0 mph 85 % 0.00 in
23:36 71.5 °F 67.1 °F 30.03 in East 1.0 mph 2.0 mph 86 % 0.00 in
23:41 71.5 °F 66.8 °F 30.03 in Calm   2.0 mph 85 % 0.00 in
23:46 71.4 °F 66.7 °F 30.03 in Calm   2.0 mph 85 % 0.00 in
23:51 71.3 °F 66.6 °F 30.03 in East 0.2 mph 1.2 mph 85 % 0.00 in
23:56 71.3 °F 66.5 °F 30.03 in East 1.0 mph 2.0 mph 85 % 0.00 in
Crab Meadow Weather
Compliments of Weather Underground - 2.75 mb

Script developed by  Jim McMurry - jmcmurry@mwt.net Adapted for the template by  Wim van der Kuil - Leuven-Template.eu

Hurricanes: Hurricanes are classified into five categories, based on their wind speeds and potential to cause damage. * Category One -- Winds 74-95 miles per hour * Category Two -- Winds 96-110 miles per hour * Category Three -- Winds 111-130 miles per hour * Category Four -- Winds 131-155 miles per hour * Category Five -- Winds greater than 155 miles per hour.